sensor_id;sensor_type;location;lat;lon;timestamp;pressure;altitude;pressure_sealevel;temperature;humidity
43824;BME280;29470;53.550;9.926;2022-10-16T00:00:49;100515.94;;;13.94;100.00
43824;BME280;29470;53.550;9.926;2022-10-16T00:05:51;100521.22;;;13.95;100.00
43824;BME280;29470;53.550;9.926;2022-10-16T00:10:59;100525.34;;;13.92;100.00
43824;BME280;29470;53.550;9.926;2022-10-16T00:16:04;100520.09;;;13.90;100.00
43824;BME280;29470;53.550;9.926;2022-10-16T00:21:09;100513.81;;;13.87;100.00
43824;BME280;29470;53.550;9.926;2022-10-16T00:26:13;100525.00;;;14.02;100.00
43824;BME280;29470;53.550;9.926;2022-10-16T00:31:20;100522.19;;;13.97;100.00
43824;BME280;29470;53.550;9.926;2022-10-16T00:36:25;100525.00;;;14.02;100.00
43824;BME280;29470;53.550;9.926;2022-10-16T00:41:28;100531.94;;;13.85;100.00
43824;BME280;29470;53.550;9.926;2022-10-16T00:46:35;100537.88;;;13.82;100.00
43824;BME280;29470;53.550;9.926;2022-10-16T00:51:41;100542.34;;;13.85;100.00
43824;BME280;29470;53.550;9.926;2022-10-16T00:56:45;100544.63;;;13.95;100.00
43824;BME280;29470;53.550;9.926;2022-10-16T01:01:50;100537.63;;;13.94;99.70
43824;BME280;29470;53.550;9.926;2022-10-16T01:06:58;100550.69;;;13.96;97.54
43824;BME280;29470;53.550;9.926;2022-10-16T01:12:06;100556.66;;;13.93;98.13
43824;BME280;29470;53.550;9.926;2022-10-16T01:17:16;100558.91;;;13.87;98.03
43824;BME280;29470;53.550;9.926;2022-10-16T01:22:24;100561.84;;;13.77;97.38
43824;BME280;29470;53.550;9.926;2022-10-16T01:27:30;100567.59;;;13.88;97.30
43824;BME280;29470;53.550;9.926;2022-10-16T01:32:40;100572.28;;;13.62;97.60
43824;BME280;29470;53.550;9.926;2022-10-16T01:37:47;100570.56;;;13.46;99.19
43824;BME280;29470;53.550;9.926;2022-10-16T01:42:56;100569.94;;;13.35;99.97
43824;BME280;29470;53.550;9.926;2022-10-16T01:48:04;100564.03;;;13.37;99.76
43824;BME280;29470;53.550;9.926;2022-10-16T01:53:12;100563.53;;;13.28;100.00
43824;BME280;29470;53.550;9.926;2022-10-16T01:58:17;100570.09;;;13.38;100.00
43824;BME280;29470;53.550;9.926;2022-10-16T02:03:21;100567.81;;;13.27;99.36
43824;BME280;29470;53.550;9.926;2022-10-16T02:08:25;100571.47;;;13.31;99.07
43824;BME280;29470;53.550;9.926;2022-10-16T02:13:35;100562.78;;;13.31;98.73
43824;BME280;29470;53.550;9.926;2022-10-16T02:18:41;100569.69;;;13.30;98.61
43824;BME280;29470;53.550;9.926;2022-10-16T02:23:50;100577.38;;;13.29;98.75
43824;BME280;29470;53.550;9.926;2022-10-16T02:28:59;100581.81;;;13.15;99.41
43824;BME280;29470;53.550;9.926;2022-10-16T02:34:04;100588.56;;;13.11;99.27
43824;BME280;29470;53.550;9.926;2022-10-16T02:39:09;100583.03;;;13.05;99.24
43824;BME280;29470;53.550;9.926;2022-10-16T02:44:14;100579.50;;;13.04;98.94
43824;BME280;29470;53.550;9.926;2022-10-16T02:49:17;100579.97;;;12.97;99.16
43824;BME280;29470;53.550;9.926;2022-10-16T02:54:20;100584.09;;;12.93;100.00
43824;BME280;29470;53.550;9.926;2022-10-16T02:59:24;100578.03;;;12.78;100.00
43824;BME280;29470;53.550;9.926;2022-10-16T03:04:27;100575.09;;;12.72;100.00
43824;BME280;29470;53.550;9.926;2022-10-16T03:09:30;100570.69;;;12.71;100.00
43824;BME280;29470;53.550;9.926;2022-10-16T03:14:34;100567.31;;;12.72;100.00
43824;BME280;29470;53.550;9.926;2022-10-16T03:19:37;100569.72;;;12.69;100.00
43824;BME280;29470;53.550;9.926;2022-10-16T03:24:40;100568.28;;;12.74;100.00
43824;BME280;29470;53.550;9.926;2022-10-16T03:29:44;100569.25;;;12.76;100.00
43824;BME280;29470;53.550;9.926;2022-10-16T03:34:47;100580.09;;;12.69;100.00
43824;BME280;29470;53.550;9.926;2022-10-16T03:39:49;100577.94;;;12.76;100.00
43824;BME280;29470;53.550;9.926;2022-10-16T03:44:54;100585.09;;;12.80;100.00
43824;BME280;29470;53.550;9.926;2022-10-16T03:49:57;100590.47;;;12.84;100.00
43824;BME280;29470;53.550;9.926;2022-10-16T03:55:00;100580.06;;;12.84;100.00
43824;BME280;29470;53.550;9.926;2022-10-16T04:00:05;100584.38;;;12.83;100.00
43824;BME280;29470;53.550;9.926;2022-10-16T04:05:12;100590.22;;;12.79;100.00
43824;BME280;29470;53.550;9.926;2022-10-16T04:10:15;100601.84;;;12.71;100.00
43824;BME280;29470;53.550;9.926;2022-10-16T04:15:19;100610.31;;;12.68;100.00
43824;BME280;29470;53.550;9.926;2022-10-16T04:20:22;100609.50;;;12.69;100.00
43824;BME280;29470;53.550;9.926;2022-10-16T04:25:25;100629.59;;;12.72;99.96
43824;BME280;29470;53.550;9.926;2022-10-16T04:30:29;100613.56;;;12.79;99.71
43824;BME280;29470;53.550;9.926;2022-10-16T04:35:32;100619.19;;;12.72;100.00
43824;BME280;29470;53.550;9.926;2022-10-16T04:40:35;100628.41;;;12.81;100.00
43824;BME280;29470;53.550;9.926;2022-10-16T04:45:39;100640.75;;;12.71;100.00
43824;BME280;29470;53.550;9.926;2022-10-16T04:50:42;100636.44;;;12.71;100.00
43824;BME280;29470;53.550;9.926;2022-10-16T04:55:45;100633.69;;;12.68;100.00
43824;BME280;29470;53.550;9.926;2022-10-16T05:00:50;100635.41;;;12.67;100.00
43824;BME280;29470;53.550;9.926;2022-10-16T05:05:53;100644.59;;;12.77;100.00
43824;BME280;29470;53.550;9.926;2022-10-16T05:10:56;100646.84;;;12.71;100.00
43824;BME280;29470;53.550;9.926;2022-10-16T05:16:00;100650.06;;;12.67;100.00
43824;BME280;29470;53.550;9.926;2022-10-16T05:21:03;100671.72;;;12.67;100.00
43824;BME280;29470;53.550;9.926;2022-10-16T05:26:08;100669.31;;;12.71;100.00
43824;BME280;29470;53.550;9.926;2022-10-16T05:31:12;100666.84;;;12.59;100.00
43824;BME280;29470;53.550;9.926;2022-10-16T05:36:16;100674.38;;;12.69;100.00
43824;BME280;29470;53.550;9.926;2022-10-16T05:41:19;100669.75;;;12.78;100.00
43824;BME280;29470;53.550;9.926;2022-10-16T05:46:24;100662.69;;;12.91;100.00
43824;BME280;29470;53.550;9.926;2022-10-16T05:51:27;100668.97;;;12.94;100.00
43824;BME280;29470;53.550;9.926;2022-10-16T05:56:30;100680.84;;;12.91;100.00
43824;BME280;29470;53.550;9.926;2022-10-16T06:01:35;100681.84;;;13.23;100.00
43824;BME280;29470;53.550;9.926;2022-10-16T06:06:37;100684.41;;;13.38;100.00
43824;BME280;29470;53.550;9.926;2022-10-16T06:11:40;100678.41;;;13.39;100.00
43824;BME280;29470;53.550;9.926;2022-10-16T06:16:45;100683.28;;;13.48;99.92
43824;BME280;29470;53.550;9.926;2022-10-16T06:21:47;100686.13;;;13.37;100.00
43824;BME280;29470;53.550;9.926;2022-10-16T06:26:50;100695.19;;;13.29;100.00
43824;BME280;29470;53.550;9.926;2022-10-16T06:31:54;100689.81;;;13.26;100.00
43824;BME280;29470;53.550;9.926;2022-10-16T06:36:57;100697.66;;;13.58;100.00
43824;BME280;29470;53.550;9.926;2022-10-16T06:42:00;100705.16;;;13.68;99.09
43824;BME280;29470;53.550;9.926;2022-10-16T06:47:11;100713.53;;;13.94;97.94
43824;BME280;29470;53.550;9.926;2022-10-16T06:52:14;100728.66;;;14.01;97.31
43824;BME280;29470;53.550;9.926;2022-10-16T06:57:17;100728.91;;;15.58;88.83
43824;BME280;29470;53.550;9.926;2022-10-16T07:02:22;100731.09;;;17.65;77.58
43824;BME280;29470;53.550;9.926;2022-10-16T07:07:26;100731.81;;;19.01;71.93
43824;BME280;29470;53.550;9.926;2022-10-16T07:12:28;100741.16;;;18.45;70.49
43824;BME280;29470;53.550;9.926;2022-10-16T07:17:33;100753.47;;;16.17;82.78
43824;BME280;29470;53.550;9.926;2022-10-16T07:22:35;100757.84;;;15.46;87.97
43824;BME280;29470;53.550;9.926;2022-10-16T07:27:38;100760.06;;;15.03;91.17
43824;BME280;29470;53.550;9.926;2022-10-16T07:32:42;100768.41;;;14.63;94.92
43824;BME280;29470;53.550;9.926;2022-10-16T07:37:46;100784.09;;;14.65;94.91
43824;BME280;29470;53.550;9.926;2022-10-16T07:42:49;100791.69;;;14.93;94.15
43824;BME280;29470;53.550;9.926;2022-10-16T07:47:53;100792.41;;;15.07;92.88
43824;BME280;29470;53.550;9.926;2022-10-16T07:52:56;100793.38;;;15.44;91.47
43824;BME280;29470;53.550;9.926;2022-10-16T07:57:58;100796.59;;;14.87;93.74
43824;BME280;29470;53.550;9.926;2022-10-16T08:03:03;100802.56;;;15.02;92.99
43824;BME280;29470;53.550;9.926;2022-10-16T08:08:06;100806.25;;;14.90;94.42
43824;BME280;29470;53.550;9.926;2022-10-16T08:13:09;100822.25;;;14.64;96.83
43824;BME280;29470;53.550;9.926;2022-10-16T08:18:14;100818.22;;;14.69;96.58
43824;BME280;29470;53.550;9.926;2022-10-16T08:23:17;100834.13;;;14.59;97.52
43824;BME280;29470;53.550;9.926;2022-10-16T08:28:21;100831.00;;;14.81;96.74
43824;BME280;29470;53.550;9.926;2022-10-16T08:33:25;100832.69;;;15.14;93.69
43824;BME280;29470;53.550;9.926;2022-10-16T08:38:28;100830.06;;;15.65;91.40
43824;BME280;29470;53.550;9.926;2022-10-16T08:43:42;100831.81;;;15.83;89.67
43824;BME280;29470;53.550;9.926;2022-10-16T08:48:50;100833.19;;;15.76;90.52
43824;BME280;29470;53.550;9.926;2022-10-16T08:53:55;100833.53;;;16.00;89.77
43824;BME280;29470;53.550;9.926;2022-10-16T08:58:59;100847.84;;;15.90;89.49
43824;BME280;29470;53.550;9.926;2022-10-16T09:04:20;100853.81;;;16.24;86.57
43824;BME280;29470;53.550;9.926;2022-10-16T09:09:52;100862.94;;;16.52;85.42
43824;BME280;29470;53.550;9.926;2022-10-16T09:15:02;100863.34;;;16.42;85.71
43824;BME280;29470;53.550;9.926;2022-10-16T09:20:28;100875.81;;;16.47;84.48
43824;BME280;29470;53.550;9.926;2022-10-16T09:25:32;100881.34;;;16.73;83.29
43824;BME280;29470;53.550;9.926;2022-10-16T09:30:37;100894.13;;;16.87;81.50
43824;BME280;29470;53.550;9.926;2022-10-16T09:35:43;100887.06;;;16.84;81.39
43824;BME280;29470;53.550;9.926;2022-10-16T09:40:47;100873.69;;;17.16;79.62
43824;BME280;29470;53.550;9.926;2022-10-16T09:46:05;100881.13;;;16.69;78.90
43824;BME280;29470;53.550;9.926;2022-10-16T09:51:18;100885.94;;;16.79;79.25
43824;BME280;29470;53.550;9.926;2022-10-16T09:56:23;100900.59;;;16.95;78.62
43824;BME280;29470;53.550;9.926;2022-10-16T10:01:30;100910.47;;;17.01;79.38
43824;BME280;29470;53.550;9.926;2022-10-16T10:06:36;100923.81;;;16.89;80.13
43824;BME280;29470;53.550;9.926;2022-10-16T10:11:47;100921.66;;;16.98;80.28
43824;BME280;29470;53.550;9.926;2022-10-16T10:16:52;100926.50;;;17.08;79.16
43824;BME280;29470;53.550;9.926;2022-10-16T10:21:56;100937.44;;;17.00;79.71
43824;BME280;29470;53.550;9.926;2022-10-16T10:27:04;100941.16;;;17.05;79.06
43824;BME280;29470;53.550;9.926;2022-10-16T10:32:22;100935.03;;;16.86;79.35
43824;BME280;29470;53.550;9.926;2022-10-16T10:37:41;100939.69;;;17.12;78.76
43824;BME280;29470;53.550;9.926;2022-10-16T10:42:52;100944.59;;;17.63;75.56
43824;BME280;29470;53.550;9.926;2022-10-16T10:48:06;100939.31;;;17.82;72.87
43824;BME280;29470;53.550;9.926;2022-10-16T10:53:27;100941.38;;;17.49;72.42
43824;BME280;29470;53.550;9.926;2022-10-16T10:58:56;100943.84;;;17.46;73.71
43824;BME280;29470;53.550;9.926;2022-10-16T11:04:25;100933.88;;;17.37;74.08
43824;BME280;29470;53.550;9.926;2022-10-16T11:09:36;100939.84;;;17.34;72.41
43824;BME280;29470;53.550;9.926;2022-10-16T11:14:48;100940.63;;;17.32;71.06
43824;BME280;29470;53.550;9.926;2022-10-16T11:19:54;100950.53;;;17.39;70.99
43824;BME280;29470;53.550;9.926;2022-10-16T11:25:04;100962.09;;;17.64;69.03
43824;BME280;29470;53.550;9.926;2022-10-16T11:30:18;100969.25;;;17.89;68.55
43824;BME280;29470;53.550;9.926;2022-10-16T11:35:25;100975.44;;;18.32;68.12
43824;BME280;29470;53.550;9.926;2022-10-16T11:40:33;100985.09;;;18.54;66.83
43824;BME280;29470;53.550;9.926;2022-10-16T11:45:44;100991.19;;;18.55;67.38
43824;BME280;29470;53.550;9.926;2022-10-16T11:50:52;100986.91;;;18.57;66.46
43824;BME280;29470;53.550;9.926;2022-10-16T11:55:57;100994.94;;;18.39;67.38
43824;BME280;29470;53.550;9.926;2022-10-16T12:01:06;101016.94;;;18.02;67.37
43824;BME280;29470;53.550;9.926;2022-10-16T12:06:28;101009.84;;;17.40;69.06
43824;BME280;29470;53.550;9.926;2022-10-16T12:11:38;101027.19;;;17.20;69.73
43824;BME280;29470;53.550;9.926;2022-10-16T12:16:51;101033.63;;;17.27;68.96
43824;BME280;29470;53.550;9.926;2022-10-16T12:21:56;101032.53;;;17.03;69.63
43824;BME280;29470;53.550;9.926;2022-10-16T12:27:01;101037.38;;;17.14;68.57
43824;BME280;29470;53.550;9.926;2022-10-16T12:32:18;101047.19;;;17.57;67.08
43824;BME280;29470;53.550;9.926;2022-10-16T12:37:43;101044.94;;;17.45;66.65
43824;BME280;29470;53.550;9.926;2022-10-16T12:42:48;101056.47;;;17.70;63.89
43824;BME280;29470;53.550;9.926;2022-10-16T12:47:53;101060.19;;;17.75;63.14
43824;BME280;29470;53.550;9.926;2022-10-16T12:52:56;101076.13;;;17.80;63.35
43824;BME280;29470;53.550;9.926;2022-10-16T12:58:13;101077.56;;;18.13;61.40
43824;BME280;29470;53.550;9.926;2022-10-16T13:03:58;101086.88;;;17.86;62.14
43824;BME280;29470;53.550;9.926;2022-10-16T13:09:30;101082.94;;;17.57;64.07
43824;BME280;29470;53.550;9.926;2022-10-16T13:14:53;101089.25;;;17.42;65.10
43824;BME280;29470;53.550;9.926;2022-10-16T13:20:12;101093.41;;;17.38;64.80
43824;BME280;29470;53.550;9.926;2022-10-16T13:25:26;101105.66;;;17.58;64.67
43824;BME280;29470;53.550;9.926;2022-10-16T13:30:39;101120.75;;;17.45;63.99
43824;BME280;29470;53.550;9.926;2022-10-16T13:35:47;101126.63;;;17.59;63.32
43824;BME280;29470;53.550;9.926;2022-10-16T13:40:52;101134.56;;;17.61;63.24
43824;BME280;29470;53.550;9.926;2022-10-16T13:46:00;101131.81;;;17.77;62.76
43824;BME280;29470;53.550;9.926;2022-10-16T13:51:06;101141.81;;;17.86;62.97
43824;BME280;29470;53.550;9.926;2022-10-16T13:56:11;101140.63;;;18.17;61.71
43824;BME280;29470;53.550;9.926;2022-10-16T14:01:18;101163.91;;;17.93;61.23
43824;BME280;29470;53.550;9.926;2022-10-16T14:06:22;101159.75;;;17.78;61.89
43824;BME280;29470;53.550;9.926;2022-10-16T14:11:25;101170.78;;;17.53;62.47
43824;BME280;29470;53.550;9.926;2022-10-16T14:16:31;101181.50;;;17.58;63.09
43824;BME280;29470;53.550;9.926;2022-10-16T14:21:35;101182.81;;;17.67;62.62
43824;BME280;29470;53.550;9.926;2022-10-16T14:26:41;101191.78;;;17.73;62.68
43824;BME280;29470;53.550;9.926;2022-10-16T14:31:56;101197.75;;;17.70;63.71
43824;BME280;29470;53.550;9.926;2022-10-16T14:37:01;101222.03;;;17.67;63.96
43824;BME280;29470;53.550;9.926;2022-10-16T14:42:14;101217.44;;;17.62;64.02
43824;BME280;29470;53.550;9.926;2022-10-16T14:47:21;101215.78;;;17.46;64.57
43824;BME280;29470;53.550;9.926;2022-10-16T14:52:27;101226.69;;;17.55;64.23
43824;BME280;29470;53.550;9.926;2022-10-16T14:57:33;101226.31;;;17.29;64.79
43824;BME280;29470;53.550;9.926;2022-10-16T15:02:39;101231.81;;;17.17;65.62
43824;BME280;29470;53.550;9.926;2022-10-16T15:07:42;101240.25;;;16.95;66.38
43824;BME280;29470;53.550;9.926;2022-10-16T15:12:46;101240.78;;;16.71;67.30
43824;BME280;29470;53.550;9.926;2022-10-16T15:17:50;101255.66;;;16.56;67.81
43824;BME280;29470;53.550;9.926;2022-10-16T15:22:55;101251.09;;;16.52;68.55
43824;BME280;29470;53.550;9.926;2022-10-16T15:28:03;101255.81;;;16.59;67.58
43824;BME280;29470;53.550;9.926;2022-10-16T15:33:15;101256.97;;;16.64;67.03
43824;BME280;29470;53.550;9.926;2022-10-16T15:38:22;101262.41;;;16.52;67.39
43824;BME280;29470;53.550;9.926;2022-10-16T15:43:26;101275.22;;;16.31;68.34
43824;BME280;29470;53.550;9.926;2022-10-16T15:48:31;101279.81;;;16.03;69.41
43824;BME280;29470;53.550;9.926;2022-10-16T15:53:35;101287.69;;;15.88;70.08
43824;BME280;29470;53.550;9.926;2022-10-16T15:58:48;101298.41;;;15.63;71.17
43824;BME280;29470;53.550;9.926;2022-10-16T16:03:54;101300.94;;;15.46;73.15
43824;BME280;29470;53.550;9.926;2022-10-16T16:08:58;101304.34;;;15.45;72.98
43824;BME280;29470;53.550;9.926;2022-10-16T16:14:03;101306.22;;;15.33;73.71
43824;BME280;29470;53.550;9.926;2022-10-16T16:19:08;101311.53;;;15.20;75.10
43824;BME280;29470;53.550;9.926;2022-10-16T16:24:12;101318.47;;;14.91;76.55
43824;BME280;29470;53.550;9.926;2022-10-16T16:29:15;101328.44;;;14.83;77.66
43824;BME280;29470;53.550;9.926;2022-10-16T16:34:20;101342.41;;;14.56;78.64
43824;BME280;29470;53.550;9.926;2022-10-16T16:39:23;101352.63;;;14.40;80.07
43824;BME280;29470;53.550;9.926;2022-10-16T16:44:26;101360.56;;;14.28;80.98
43824;BME280;29470;53.550;9.926;2022-10-16T16:49:31;101370.47;;;14.20;81.32
43824;BME280;29470;53.550;9.926;2022-10-16T16:54:34;101384.72;;;14.12;82.28
43824;BME280;29470;53.550;9.926;2022-10-16T16:59:37;101397.72;;;13.98;83.01
43824;BME280;29470;53.550;9.926;2022-10-16T17:04:42;101407.72;;;13.92;83.96
43824;BME280;29470;53.550;9.926;2022-10-16T17:09:45;101406.78;;;13.92;83.82
43824;BME280;29470;53.550;9.926;2022-10-16T17:14:50;101413.31;;;13.85;84.23
43824;BME280;29470;53.550;9.926;2022-10-16T17:19:54;101415.59;;;13.94;83.75
43824;BME280;29470;53.550;9.926;2022-10-16T17:24:57;101422.69;;;13.83;84.03
43824;BME280;29470;53.550;9.926;2022-10-16T17:30:00;101429.66;;;13.70;84.80
43824;BME280;29470;53.550;9.926;2022-10-16T17:35:04;101439.44;;;13.61;85.39
43824;BME280;29470;53.550;9.926;2022-10-16T17:40:10;101458.00;;;13.54;85.52
43824;BME280;29470;53.550;9.926;2022-10-16T17:45:13;101469.38;;;13.43;86.01
43824;BME280;29470;53.550;9.926;2022-10-16T17:50:21;101467.69;;;13.31;85.87
43824;BME280;29470;53.550;9.926;2022-10-16T17:55:26;101488.13;;;13.26;86.47
43824;BME280;29470;53.550;9.926;2022-10-16T18:00:29;101494.72;;;13.21;86.95
43824;BME280;29470;53.550;9.926;2022-10-16T18:05:36;101489.75;;;13.13;88.33
43824;BME280;29470;53.550;9.926;2022-10-16T18:10:44;101494.53;;;13.06;89.14
43824;BME280;29470;53.550;9.926;2022-10-16T18:15:58;101491.59;;;13.02;89.84
43824;BME280;29470;53.550;9.926;2022-10-16T18:21:06;101494.66;;;12.96;90.01
43824;BME280;29470;53.550;9.926;2022-10-16T18:26:11;101504.50;;;12.88;90.71
43824;BME280;29470;53.550;9.926;2022-10-16T18:31:16;101517.25;;;12.85;90.48
43824;BME280;29470;53.550;9.926;2022-10-16T18:36:26;101531.59;;;12.80;91.61
43824;BME280;29470;53.550;9.926;2022-10-16T18:41:30;101526.06;;;12.75;91.61
43824;BME280;29470;53.550;9.926;2022-10-16T18:46:42;101538.03;;;12.73;91.63
43824;BME280;29470;53.550;9.926;2022-10-16T18:51:47;101542.56;;;12.76;92.35
43824;BME280;29470;53.550;9.926;2022-10-16T18:56:53;101543.44;;;12.76;92.13
43824;BME280;29470;53.550;9.926;2022-10-16T19:01:57;101540.03;;;12.77;92.52
43824;BME280;29470;53.550;9.926;2022-10-16T19:07:02;101536.22;;;12.72;93.91
43824;BME280;29470;53.550;9.926;2022-10-16T19:12:05;101542.31;;;12.61;93.87
43824;BME280;29470;53.550;9.926;2022-10-16T19:17:15;101539.59;;;12.47;94.68
43824;BME280;29470;53.550;9.926;2022-10-16T19:22:20;101538.13;;;12.39;95.21
43824;BME280;29470;53.550;9.926;2022-10-16T19:27:53;101534.41;;;12.35;96.55
43824;BME280;29470;53.550;9.926;2022-10-16T19:32:57;101544.31;;;12.29;97.02
43824;BME280;29470;53.550;9.926;2022-10-16T19:38:08;101558.75;;;12.26;96.93
43824;BME280;29470;53.550;9.926;2022-10-16T19:43:21;101563.03;;;12.25;97.04
43824;BME280;29470;53.550;9.926;2022-10-16T19:48:25;101574.75;;;12.20;97.18
43824;BME280;29470;53.550;9.926;2022-10-16T19:53:32;101581.56;;;12.30;97.17
43824;BME280;29470;53.550;9.926;2022-10-16T20:06:22;101558.66;;;12.48;97.81
43824;BME280;29470;53.550;9.926;2022-10-16T20:18:13;101579.75;;;12.52;98.46
43824;BME280;29470;53.550;9.926;2022-10-16T20:24:09;101588.56;;;12.55;98.49
43824;BME280;29470;53.550;9.926;2022-10-16T20:31:12;101581.78;;;12.57;98.95
43824;BME280;29470;53.550;9.926;2022-10-16T20:43:41;101594.09;;;12.59;98.53
43824;BME280;29470;53.550;9.926;2022-10-16T20:48:49;101594.09;;;12.59;98.42
43824;BME280;29470;53.550;9.926;2022-10-16T20:53:54;101605.28;;;12.58;98.48
43824;BME280;29470;53.550;9.926;2022-10-16T20:58:59;101607.53;;;12.65;97.79
43824;BME280;29470;53.550;9.926;2022-10-16T21:04:05;101613.19;;;12.84;97.15
43824;BME280;29470;53.550;9.926;2022-10-16T21:09:08;101614.66;;;12.92;96.39
43824;BME280;29470;53.550;9.926;2022-10-16T21:14:13;101628.44;;;12.79;96.14
43824;BME280;29470;53.550;9.926;2022-10-16T21:19:16;101631.91;;;12.79;97.39
43824;BME280;29470;53.550;9.926;2022-10-16T21:24:22;101644.94;;;12.91;96.37
43824;BME280;29470;53.550;9.926;2022-10-16T21:29:29;101636.31;;;12.80;96.96
43824;BME280;29470;53.550;9.926;2022-10-16T21:34:33;101645.38;;;12.74;98.55
43824;BME280;29470;53.550;9.926;2022-10-16T21:39:37;101654.16;;;12.76;98.91
43824;BME280;29470;53.550;9.926;2022-10-16T21:44:41;101636.88;;;12.76;98.26
43824;BME280;29470;53.550;9.926;2022-10-16T21:49:44;101633.50;;;13.01;96.59
43824;BME280;29470;53.550;9.926;2022-10-16T21:54:47;101654.50;;;12.80;96.68
43824;BME280;29470;53.550;9.926;2022-10-16T22:00:00;101645.91;;;12.70;98.14
43824;BME280;29470;53.550;9.926;2022-10-16T22:05:07;101648.06;;;12.63;99.44
43824;BME280;29470;53.550;9.926;2022-10-16T22:10:10;101641.47;;;12.57;99.57
43824;BME280;29470;53.550;9.926;2022-10-16T22:15:15;101654.50;;;12.80;100.00
43824;BME280;29470;53.550;9.926;2022-10-16T22:20:18;101652.03;;;12.82;98.93
43824;BME280;29470;53.550;9.926;2022-10-16T22:25:24;101652.59;;;12.78;99.61
43824;BME280;29470;53.550;9.926;2022-10-16T22:30:28;101643.88;;;12.77;99.51
43824;BME280;29470;53.550;9.926;2022-10-16T22:35:37;101644.13;;;13.04;97.82
43824;BME280;29470;53.550;9.926;2022-10-16T22:40:40;101634.88;;;13.08;96.52
43824;BME280;29470;53.550;9.926;2022-10-16T22:45:44;101631.84;;;13.02;97.10
43824;BME280;29470;53.550;9.926;2022-10-16T22:50:47;101630.81;;;13.00;98.04
43824;BME280;29470;53.550;9.926;2022-10-16T22:55:50;101642.53;;;13.06;96.51
43824;BME280;29470;53.550;9.926;2022-10-16T23:00:55;101639.97;;;13.18;96.20
43824;BME280;29470;53.550;9.926;2022-10-16T23:05:57;101638.50;;;13.10;95.53
43824;BME280;29470;53.550;9.926;2022-10-16T23:11:04;101626.19;;;13.19;95.42
43824;BME280;29470;53.550;9.926;2022-10-16T23:16:09;101617.81;;;13.23;95.23
43824;BME280;29470;53.550;9.926;2022-10-16T23:21:15;101614.66;;;13.16;96.74
43824;BME280;29470;53.550;9.926;2022-10-16T23:26:20;101614.88;;;13.19;97.21
43824;BME280;29470;53.550;9.926;2022-10-16T23:31:25;101614.56;;;13.14;97.89
43824;BME280;29470;53.550;9.926;2022-10-16T23:36:29;101600.88;;;13.17;98.33
43824;BME280;29470;53.550;9.926;2022-10-16T23:41:32;101564.41;;;13.15;97.74
43824;BME280;29470;53.550;9.926;2022-10-16T23:46:37;101573.78;;;13.13;98.74
43824;BME280;29470;53.550;9.926;2022-10-16T23:51:40;101569.25;;;13.10;99.73
43824;BME280;29470;53.550;9.926;2022-10-16T23:56:42;101559.56;;;13.08;100.00
